Time;durP1;ratioP1;P1;durP2;ratioP2;P2;SDS_P1;SDS_P2;PMS_P1;PMS_P2;Temp;Humidity;BMP_temperature;BMP_pressure;BME280_temperature;BME280_humidity;BME280_pressure;Samples;Min_cycle;Max_cycle;Signal;HPM_P1;HPM_P2
2022/03/03 00:02:09;;;;;;;5.70;4.18;;;;;;;;;;5063474;28;20075;-56
2022/03/03 00:04:35;;;;;;;5.90;3.95;;;;;;;;;;5068030;28;20462;-56
2022/03/03 00:07:00;;;;;;;7.20;5.35;;;;;;;;;;5074208;28;20135;-57
2022/03/03 00:09:25;;;;;;;6.18;5.22;;;;;;;;;;5074202;28;20056;-56
2022/03/03 00:11:50;;;;;;;4.70;4.00;;;;;;;;;;5041285;28;20029;-54
2022/03/03 00:14:15;;;;;;;4.43;3.78;;;;;;;;;;5045929;28;20020;-58
2022/03/03 00:16:41;;;;;;;5.93;5.18;;;;;;;;;;5067309;28;20036;-56
2022/03/03 00:19:06;;;;;;;5.22;4.35;;;;;;;;;;5074463;28;20357;-57
2022/03/03 00:21:31;;;;;;;8.77;5.85;;;;;;;;;;5063142;28;20040;-56
2022/03/03 00:23:57;;;;;;;5.68;5.07;;;;;;;;;;5052676;28;20075;-53
2022/03/03 00:26:22;;;;;;;6.78;5.15;;;;;;;;;;5059666;28;20081;-54
2022/03/03 00:28:47;;;;;;;7.28;5.47;;;;;;;;;;5054229;28;20021;-53
2022/03/03 00:31:12;;;;;;;4.82;4.30;;;;;;;;;;5053762;28;20024;-54
2022/03/03 00:33:38;;;;;;;5.68;4.88;;;;;;;;;;5054047;28;20024;-55
2022/03/03 00:36:03;;;;;;;5.15;4.57;;;;;;;;;;5030287;28;20113;-57
2022/03/03 00:38:28;;;;;;;5.70;4.53;;;;;;;;;;5074112;28;20032;-54
2022/03/03 00:40:54;;;;;;;7.25;6.03;;;;;;;;;;5063240;28;20029;-55
2022/03/03 00:43:19;;;;;;;6.63;5.18;;;;;;;;;;5053403;28;20033;-53
2022/03/03 00:45:44;;;;;;;5.80;5.00;;;;;;;;;;5054201;28;20389;-55
2022/03/03 00:48:09;;;;;;;6.03;5.07;;;;;;;;;;5053948;28;20039;-55
2022/03/03 00:50:35;;;;;;;6.30;5.57;;;;;;;;;;5055821;28;20035;-56
2022/03/03 00:53:00;;;;;;;6.05;5.45;;;;;;;;;;5050492;28;20370;-57
2022/03/03 00:55:25;;;;;;;8.77;4.90;;;;;;;;;;5047425;28;20033;-57
2022/03/03 00:57:51;;;;;;;7.75;4.65;;;;;;;;;;5033423;28;20017;-55
2022/03/03 01:00:18;;;;;;;6.70;5.43;;;;;;;;;;5044211;28;20029;-56
2022/03/03 01:02:43;;;;;;;5.72;5.10;;;;;;;;;;5047032;28;20017;-54
2022/03/03 01:05:09;;;;;;;5.97;5.38;;;;;;;;;;5053050;28;20045;-56
2022/03/03 01:07:34;;;;;;;6.07;5.20;;;;;;;;;;5057272;28;20020;-56
2022/03/03 01:09:59;;;;;;;5.50;4.45;;;;;;;;;;5073139;28;20031;-56
2022/03/03 01:12:25;;;;;;;6.15;4.90;;;;;;;;;;5047140;28;20039;-56
2022/03/03 01:14:50;;;;;;;7.20;5.68;;;;;;;;;;5054226;28;20367;-56
2022/03/03 01:17:15;;;;;;;6.47;5.22;;;;;;;;;;5061677;28;20358;-54
2022/03/03 01:19:41;;;;;;;6.72;6.00;;;;;;;;;;5058705;28;20029;-56
2022/03/03 01:22:07;;;;;;;4.97;4.47;;;;;;;;;;5052570;28;20071;-54
2022/03/03 01:24:32;;;;;;;6.90;5.80;;;;;;;;;;5036806;28;20029;-55
2022/03/03 01:26:57;;;;;;;5.85;5.35;;;;;;;;;;5046892;28;20032;-56
2022/03/03 01:29:23;;;;;;;5.60;4.90;;;;;;;;;;5036480;28;20075;-56
2022/03/03 01:31:48;;;;;;;6.80;6.07;;;;;;;;;;5061692;28;20396;-55
2022/03/03 01:34:13;;;;;;;8.10;6.77;;;;;;;;;;5032865;28;20025;-56
2022/03/03 01:36:38;;;;;;;5.00;4.60;;;;;;;;;;5051272;28;20311;-55
2022/03/03 01:39:05;;;;;;;6.38;5.05;;;;;;;;;;5049752;28;20035;-56
2022/03/03 01:41:32;;;;;;;5.80;4.95;;;;;;;;;;5035874;28;20025;-57
2022/03/03 01:43:57;;;;;;;5.50;4.93;;;;;;;;;;5052812;28;20028;-55
2022/03/03 01:46:22;;;;;;;5.20;4.38;;;;;;;;;;5062868;28;20477;-56
2022/03/03 01:48:47;;;;;;;5.97;5.38;;;;;;;;;;5067700;28;20059;-57
2022/03/03 01:51:12;;;;;;;6.20;5.30;;;;;;;;;;5064968;28;20481;-56
2022/03/03 01:53:38;;;;;;;6.70;5.40;;;;;;;;;;5045980;28;20021;-57
2022/03/03 01:56:04;;;;;;;5.63;5.13;;;;;;;;;;5037735;28;20021;-56
2022/03/03 01:58:29;;;;;;;5.32;4.70;;;;;;;;;;5049289;28;20413;-56
2022/03/03 02:00:54;;;;;;;6.38;4.80;;;;;;;;;;5055786;28;20036;-57
2022/03/03 02:03:20;;;;;;;5.70;5.15;;;;;;;;;;5043039;28;20037;-54
2022/03/03 02:05:45;;;;;;;4.72;4.32;;;;;;;;;;5041392;28;20025;-52
2022/03/03 02:08:10;;;;;;;6.63;4.97;;;;;;;;;;5070870;28;20034;-57
2022/03/03 02:10:35;;;;;;;6.95;5.75;;;;;;;;;;5066889;28;20048;-57
2022/03/03 02:13:01;;;;;;;5.38;4.78;;;;;;;;;;5058595;28;20411;-56
2022/03/03 02:15:26;;;;;;;5.00;4.50;;;;;;;;;;5052265;28;20029;-54
2022/03/03 02:17:51;;;;;;;6.60;5.97;;;;;;;;;;5052360;28;20505;-56
2022/03/03 02:20:23;;;;;;;6.25;5.65;;;;;;;;;;5038138;28;20429;-56
2022/03/03 02:22:49;;;;;;;5.78;5.28;;;;;;;;;;5050735;28;20021;-56
2022/03/03 02:25:15;;;;;;;4.55;4.15;;;;;;;;;;5032146;28;20021;-55
2022/03/03 02:27:42;;;;;;;5.70;5.15;;;;;;;;;;5064170;28;20571;-57
2022/03/03 02:30:07;;;;;;;6.20;5.32;;;;;;;;;;5040454;28;20024;-55
2022/03/03 02:32:32;;;;;;;5.05;4.53;;;;;;;;;;5044277;28;20021;-56
2022/03/03 02:34:58;;;;;;;5.10;4.55;;;;;;;;;;5050508;28;20033;-55
2022/03/03 02:37:24;;;;;;;4.28;3.83;;;;;;;;;;5036647;28;20055;-56
2022/03/03 02:39:49;;;;;;;5.63;4.65;;;;;;;;;;5059545;28;20551;-55
2022/03/03 02:42:14;;;;;;;6.97;6.15;;;;;;;;;;5062208;28;20523;-55
2022/03/03 02:44:39;;;;;;;5.18;4.68;;;;;;;;;;5058899;28;20537;-56
2022/03/03 02:47:05;;;;;;;6.43;5.13;;;;;;;;;;5062837;28;20096;-56
2022/03/03 02:49:30;;;;;;;6.20;5.57;;;;;;;;;;5057937;28;20032;-55
2022/03/03 02:51:55;;;;;;;4.93;4.50;;;;;;;;;;5061817;28;20028;-57
2022/03/03 02:54:21;;;;;;;5.05;4.55;;;;;;;;;;5047061;28;20078;-56
2022/03/03 02:59:30;;;;;;;4.25;3.85;;;;;;;;;;5051157;28;20035;-55
2022/03/03 03:01:55;;;;;;;5.55;3.72;;;;;;;;;;5049970;28;20021;-55
2022/03/03 03:04:20;;;;;;;4.18;3.53;;;;;;;;;;5035814;28;20116;-56
2022/03/03 03:06:45;;;;;;;4.15;3.80;;;;;;;;;;5059663;28;20536;-55
2022/03/03 03:09:11;;;;;;;4.15;3.75;;;;;;;;;;5052291;28;20029;-57
2022/03/03 03:11:36;;;;;;;3.78;3.47;;;;;;;;;;5042257;28;20057;-56
2022/03/03 03:14:01;;;;;;;4.88;4.40;;;;;;;;;;5043972;28;20385;-55
2022/03/03 03:16:26;;;;;;;5.15;4.65;;;;;;;;;;5052865;28;20024;-57
2022/03/03 03:18:52;;;;;;;4.90;4.40;;;;;;;;;;5051245;28;20036;-55
2022/03/03 03:21:17;;;;;;;4.07;3.67;;;;;;;;;;5050896;28;20029;-54
2022/03/03 03:23:42;;;;;;;5.88;4.75;;;;;;;;;;5051218;28;20071;-55
2022/03/03 03:26:07;;;;;;;4.28;3.83;;;;;;;;;;5030846;28;20041;-56
2022/03/03 03:28:32;;;;;;;6.28;4.53;;;;;;;;;;5045428;28;20056;-57
2022/03/03 03:30:58;;;;;;;4.55;4.03;;;;;;;;;;5035028;28;20029;-56
2022/03/03 03:33:23;;;;;;;4.57;4.18;;;;;;;;;;5046971;28;20023;-57
2022/03/03 03:35:48;;;;;;;3.97;3.63;;;;;;;;;;5065865;28;20039;-56
2022/03/03 03:38:13;;;;;;;4.00;3.60;;;;;;;;;;5066523;28;20058;-57
2022/03/03 03:40:39;;;;;;;4.20;3.70;;;;;;;;;;5036683;28;20040;-54
2022/03/03 03:43:04;;;;;;;3.33;3.03;;;;;;;;;;5050206;28;20020;-55
2022/03/03 03:45:31;;;;;;;3.42;3.13;;;;;;;;;;5061644;28;20035;-55
2022/03/03 03:47:56;;;;;;;4.53;4.15;;;;;;;;;;5055108;28;20021;-55
2022/03/03 03:50:21;;;;;;;4.15;3.75;;;;;;;;;;5062609;28;20021;-56
2022/03/03 03:52:47;;;;;;;3.83;3.40;;;;;;;;;;5064096;28;20029;-55
2022/03/03 03:55:12;;;;;;;4.22;3.53;;;;;;;;;;5045672;28;20108;-55
2022/03/03 03:57:38;;;;;;;4.28;3.75;;;;;;;;;;5045096;28;20025;-55
2022/03/03 04:00:05;;;;;;;4.60;3.80;;;;;;;;;;5051675;28;20025;-55
2022/03/03 04:02:30;;;;;;;4.25;3.85;;;;;;;;;;5049891;28;20056;-54
2022/03/03 04:04:55;;;;;;;4.15;3.63;;;;;;;;;;5058994;28;20779;-55
2022/03/03 04:07:21;;;;;;;4.15;3.53;;;;;;;;;;5074737;28;20477;-54
2022/03/03 04:09:46;;;;;;;3.60;3.30;;;;;;;;;;5073963;28;20052;-54
2022/03/03 04:12:11;;;;;;;4.93;3.85;;;;;;;;;;5044424;28;20421;-54
2022/03/03 04:14:36;;;;;;;3.17;2.88;;;;;;;;;;5054049;28;20099;-55
2022/03/03 04:17:02;;;;;;;3.92;3.50;;;;;;;;;;5045236;28;20059;-55
2022/03/03 04:19:27;;;;;;;3.55;3.22;;;;;;;;;;5073901;28;20057;-56
2022/03/03 04:21:52;;;;;;;4.33;3.53;;;;;;;;;;5073511;28;20024;-57
2022/03/03 04:24:17;;;;;;;4.15;3.75;;;;;;;;;;5041908;28;20429;-57
2022/03/03 04:26:43;;;;;;;3.40;3.10;;;;;;;;;;5053905;28;20028;-54
2022/03/03 04:29:08;;;;;;;4.13;3.33;;;;;;;;;;5059781;28;20116;-55
2022/03/03 04:31:33;;;;;;;3.55;3.25;;;;;;;;;;5067604;28;20495;-55
2022/03/03 04:33:58;;;;;;;3.55;3.15;;;;;;;;;;5045723;28;20118;-57
2022/03/03 04:36:24;;;;;;;4.35;3.95;;;;;;;;;;5062525;28;20013;-56
2022/03/03 04:38:50;;;;;;;4.97;3.67;;;;;;;;;;5053915;28;20489;-54
2022/03/03 04:41:16;;;;;;;5.25;4.68;;;;;;;;;;5044607;28;20025;-55
2022/03/03 04:43:41;;;;;;;4.15;3.75;;;;;;;;;;5037355;28;20095;-56
2022/03/03 04:46:06;;;;;;;4.78;4.38;;;;;;;;;;5058046;28;20061;-57
2022/03/03 04:48:32;;;;;;;4.50;4.10;;;;;;;;;;5071670;28;20096;-57
2022/03/03 04:50:58;;;;;;;4.18;3.45;;;;;;;;;;5073090;28;20086;-57
2022/03/03 04:53:23;;;;;;;4.25;3.80;;;;;;;;;;5056486;28;20021;-55
2022/03/03 04:55:48;;;;;;;4.30;3.90;;;;;;;;;;5056567;28;20114;-53
2022/03/03 04:58:13;;;;;;;4.50;3.88;;;;;;;;;;5065687;28;20033;-56
2022/03/03 05:00:39;;;;;;;4.97;3.38;;;;;;;;;;5056681;28;20028;-54
2022/03/03 05:03:04;;;;;;;4.28;3.88;;;;;;;;;;5061089;28;20029;-53
2022/03/03 05:05:29;;;;;;;4.45;4.05;;;;;;;;;;5053425;28;20451;-53
2022/03/03 05:07:55;;;;;;;4.38;3.80;;;;;;;;;;5049404;28;20032;-56
2022/03/03 05:10:20;;;;;;;3.85;3.45;;;;;;;;;;5068077;28;20033;-54
2022/03/03 05:12:45;;;;;;;4.80;3.45;;;;;;;;;;5067282;28;20059;-54
2022/03/03 05:15:11;;;;;;;3.88;3.55;;;;;;;;;;5066077;28;20078;-52
2022/03/03 05:17:36;;;;;;;4.75;4.25;;;;;;;;;;5054612;28;20029;-52
2022/03/03 05:20:02;;;;;;;3.33;2.85;;;;;;;;;;5037848;28;20032;-57
2022/03/03 05:22:27;;;;;;;4.03;3.63;;;;;;;;;;5052457;28;20033;-55
2022/03/03 05:24:53;;;;;;;4.63;4.22;;;;;;;;;;5048566;28;20105;-53
2022/03/03 05:27:19;;;;;;;3.63;3.33;;;;;;;;;;5056234;28;20024;-54
2022/03/03 05:29:44;;;;;;;4.28;3.85;;;;;;;;;;5047405;28;20022;-58
2022/03/03 05:32:09;;;;;;;3.92;3.55;;;;;;;;;;5024791;28;20029;-56
2022/03/03 05:34:34;;;;;;;3.30;2.90;;;;;;;;;;5040908;28;20037;-54
2022/03/03 05:37:00;;;;;;;3.55;2.55;;;;;;;;;;5042450;28;20038;-57
2022/03/03 05:39:26;;;;;;;4.28;3.83;;;;;;;;;;5050072;28;20040;-53
2022/03/03 05:41:53;;;;;;;4.10;3.70;;;;;;;;;;5051365;28;20055;-55
2022/03/03 05:44:18;;;;;;;4.43;3.80;;;;;;;;;;5041107;28;20021;-54
2022/03/03 05:46:44;;;;;;;3.05;2.67;;;;;;;;;;5044277;28;20029;-55
2022/03/03 05:49:10;;;;;;;6.97;4.43;;;;;;;;;;5045437;28;20021;-55
2022/03/03 05:51:35;;;;;;;5.30;3.60;;;;;;;;;;5061379;28;20504;-53
2022/03/03 05:54:01;;;;;;;4.03;3.63;;;;;;;;;;5045459;28;20033;-55
2022/03/03 05:56:28;;;;;;;4.57;4.05;;;;;;;;;;5055449;28;20559;-52
2022/03/03 05:58:54;;;;;;;3.63;3.28;;;;;;;;;;5052325;28;20016;-56
2022/03/03 06:01:19;;;;;;;4.03;3.63;;;;;;;;;;5052364;28;20074;-55
2022/03/03 06:03:46;;;;;;;4.00;3.55;;;;;;;;;;5049623;28;20502;-55
2022/03/03 06:06:18;;;;;;;4.53;3.63;;;;;;;;;;5051019;28;20478;-51
2022/03/03 06:09:01;;;;;;;4.32;3.63;;;;;;;;;;5052099;28;20331;-56
2022/03/03 06:11:27;;;;;;;6.75;4.00;;;;;;;;;;5048514;28;20481;-57
2022/03/03 06:13:56;;;;;;;4.65;3.40;;;;;;;;;;5048531;28;20505;-52
2022/03/03 06:16:22;;;;;;;3.95;3.53;;;;;;;;;;5047678;28;20025;-55
2022/03/03 06:18:48;;;;;;;4.47;3.80;;;;;;;;;;5050864;28;20033;-55
2022/03/03 06:21:14;;;;;;;4.22;3.83;;;;;;;;;;5046878;28;20538;-55
2022/03/03 06:23:39;;;;;;;4.85;3.88;;;;;;;;;;5046245;28;20020;-53
2022/03/03 06:26:06;;;;;;;4.60;3.95;;;;;;;;;;5024089;28;20086;-55
2022/03/03 06:28:32;;;;;;;5.20;4.68;;;;;;;;;;5048317;28;20079;-56
2022/03/03 06:30:58;;;;;;;4.93;4.40;;;;;;;;;;5052980;28;20035;-55
2022/03/03 06:33:23;;;;;;;5.05;4.55;;;;;;;;;;5062872;28;20028;-53
2022/03/03 06:35:48;;;;;;;5.03;3.92;;;;;;;;;;5052118;28;20056;-58
2022/03/03 06:38:14;;;;;;;5.32;4.00;;;;;;;;;;5059163;28;20055;-56
2022/03/03 06:40:39;;;;;;;3.90;3.58;;;;;;;;;;5059083;28;20021;-54
2022/03/03 06:43:04;;;;;;;4.07;3.53;;;;;;;;;;5043060;28;20028;-53
2022/03/03 06:45:30;;;;;;;4.45;3.72;;;;;;;;;;5050860;28;20385;-55
2022/03/03 06:47:56;;;;;;;4.72;3.42;;;;;;;;;;5051755;28;20021;-57
2022/03/03 06:50:22;;;;;;;4.13;3.72;;;;;;;;;;5051344;28;20024;-54
2022/03/03 06:52:48;;;;;;;6.82;4.45;;;;;;;;;;5051403;28;20029;-56
2022/03/03 06:55:17;;;;;;;6.53;4.40;;;;;;;;;;5041517;28;20021;-56
2022/03/03 06:57:42;;;;;;;3.63;3.05;;;;;;;;;;5043045;28;20025;-56
2022/03/03 07:00:09;;;;;;;5.82;3.80;;;;;;;;;;5033824;28;20083;-56
2022/03/03 07:02:34;;;;;;;3.90;3.55;;;;;;;;;;5037415;28;20159;-55
2022/03/03 07:05:00;;;;;;;4.13;3.72;;;;;;;;;;5052729;28;20123;-56
2022/03/03 07:07:26;;;;;;;5.22;4.28;;;;;;;;;;5053903;28;20151;-56
2022/03/03 07:09:51;;;;;;;4.40;4.00;;;;;;;;;;5055544;28;20025;-56
2022/03/03 07:12:17;;;;;;;5.30;3.80;;;;;;;;;;5050894;28;20021;-56
2022/03/03 07:14:42;;;;;;;4.95;4.40;;;;;;;;;;5060246;28;20040;-55
2022/03/03 07:17:12;;;;;;;5.53;4.45;;;;;;;;;;5060905;28;20112;-54
2022/03/03 07:19:43;;;;;;;4.32;3.72;;;;;;;;;;5050757;28;20158;-57
2022/03/03 07:22:19;;;;;;;5.60;4.70;;;;;;;;;;5054323;28;20024;-53
2022/03/03 07:25:04;;;;;;;4.93;4.40;;;;;;;;;;5051937;28;20047;-56
2022/03/03 07:27:29;;;;;;;4.85;3.90;;;;;;;;;;5046509;28;20045;-56
2022/03/03 07:29:56;;;;;;;6.00;3.88;;;;;;;;;;5059813;28;20060;-57
2022/03/03 07:32:24;;;;;;;5.97;4.18;;;;;;;;;;5043315;28;20033;-54
2022/03/03 07:34:53;;;;;;;6.75;4.35;;;;;;;;;;5058795;28;20029;-54
2022/03/03 07:37:20;;;;;;;5.32;4.40;;;;;;;;;;5056078;28;20023;-55
2022/03/03 07:39:45;;;;;;;3.70;3.30;;;;;;;;;;5062052;28;20098;-54
2022/03/03 07:42:12;;;;;;;4.43;4.03;;;;;;;;;;5034805;28;20470;-55
2022/03/03 07:44:37;;;;;;;6.13;4.80;;;;;;;;;;5052281;28;20100;-56
2022/03/03 07:47:02;;;;;;;5.15;4.03;;;;;;;;;;5048227;28;20100;-56
2022/03/03 07:49:29;;;;;;;5.85;3.38;;;;;;;;;;5054826;28;20159;-56
2022/03/03 07:51:54;;;;;;;4.57;4.18;;;;;;;;;;5024551;28;20565;-56
2022/03/03 07:54:20;;;;;;;5.68;5.13;;;;;;;;;;5047274;28;20119;-54
2022/03/03 07:56:47;;;;;;;5.65;5.15;;;;;;;;;;5053292;28;20030;-56
2022/03/03 07:59:15;;;;;;;5.60;5.03;;;;;;;;;;5049872;28;20024;-55
2022/03/03 08:01:40;;;;;;;4.00;3.58;;;;;;;;;;5045968;28;20032;-54
2022/03/03 08:04:06;;;;;;;6.95;4.25;;;;;;;;;;5035689;28;20045;-56
2022/03/03 08:06:32;;;;;;;3.85;3.30;;;;;;;;;;5034845;28;20025;-57
2022/03/03 08:09:00;;;;;;;6.10;4.65;;;;;;;;;;5042574;28;20072;-54
2022/03/03 08:11:26;;;;;;;5.57;4.35;;;;;;;;;;5024509;28;20332;-52
2022/03/03 08:13:53;;;;;;;5.78;3.95;;;;;;;;;;5055226;28;20020;-54
2022/03/03 08:16:19;;;;;;;5.03;3.38;;;;;;;;;;5055290;28;20036;-54
2022/03/03 08:18:46;;;;;;;4.72;3.67;;;;;;;;;;5054160;28;20029;-56
2022/03/03 08:21:13;;;;;;;5.57;3.58;;;;;;;;;;5063842;28;20100;-56
2022/03/03 08:23:38;;;;;;;5.60;5.00;;;;;;;;;;5048744;28;20021;-56
2022/03/03 08:26:04;;;;;;;5.68;4.22;;;;;;;;;;5038857;28;20044;-52
2022/03/03 08:28:30;;;;;;;5.85;4.47;;;;;;;;;;5043353;28;20014;-55
2022/03/03 08:31:06;;;;;;;5.63;3.80;;;;;;;;;;5053987;28;20631;-55
2022/03/03 08:33:52;;;;;;;5.93;3.70;;;;;;;;;;5043188;28;20119;-54
2022/03/03 08:36:42;;;;;;;7.00;4.18;;;;;;;;;;5062999;28;20029;-55
2022/03/03 08:39:07;;;;;;;5.25;3.30;;;;;;;;;;5047003;28;20039;-54
2022/03/03 08:41:35;;;;;;;3.50;3.13;;;;;;;;;;5018320;28;20025;-53
2022/03/03 08:44:02;;;;;;;5.88;3.75;;;;;;;;;;5067274;28;20107;-55
2022/03/03 08:46:30;;;;;;;4.53;4.00;;;;;;;;;;5047948;28;20053;-54
2022/03/03 08:48:57;;;;;;;3.78;3.38;;;;;;;;;;5055080;28;20079;-53
2022/03/03 08:51:23;;;;;;;4.90;3.40;;;;;;;;;;5056140;28;20021;-52
2022/03/03 08:53:48;;;;;;;3.47;3.20;;;;;;;;;;5036700;28;20040;-54
2022/03/03 08:56:14;;;;;;;5.05;4.00;;;;;;;;;;5049414;28;20055;-54
2022/03/03 08:58:39;;;;;;;5.90;3.28;;;;;;;;;;5045938;28;20534;-53
2022/03/03 09:01:04;;;;;;;4.05;2.72;;;;;;;;;;5054447;28;20029;-54
2022/03/03 09:03:30;;;;;;;4.20;3.65;;;;;;;;;;5057892;28;20033;-53
2022/03/03 09:05:56;;;;;;;5.05;2.83;;;;;;;;;;5053025;28;20111;-56
2022/03/03 09:08:22;;;;;;;4.03;3.58;;;;;;;;;;5067595;28;20051;-53
2022/03/03 09:10:48;;;;;;;3.80;3.35;;;;;;;;;;5035734;28;20029;-53
2022/03/03 09:13:14;;;;;;;3.63;3.22;;;;;;;;;;5050288;28;20033;-54
2022/03/03 09:15:39;;;;;;;4.97;3.35;;;;;;;;;;5054927;28;20033;-56
2022/03/03 09:18:05;;;;;;;4.30;3.42;;;;;;;;;;5072379;28;20036;-55
2022/03/03 09:20:30;;;;;;;5.53;3.05;;;;;;;;;;5048801;28;20087;-54
2022/03/03 09:22:55;;;;;;;3.80;3.40;;;;;;;;;;5068643;28;20481;-54
2022/03/03 09:25:20;;;;;;;3.47;2.50;;;;;;;;;;5043875;28;20033;-55
2022/03/03 09:27:46;;;;;;;4.38;3.42;;;;;;;;;;5048325;28;20091;-53
2022/03/03 09:30:12;;;;;;;3.92;3.13;;;;;;;;;;5054664;28;20025;-56
2022/03/03 09:32:38;;;;;;;4.38;3.58;;;;;;;;;;5056532;28;20048;-55
2022/03/03 09:35:03;;;;;;;3.70;3.38;;;;;;;;;;5052259;28;20075;-56
2022/03/03 09:37:28;;;;;;;4.05;3.40;;;;;;;;;;5051435;28;20067;-53
2022/03/03 09:39:54;;;;;;;4.55;3.80;;;;;;;;;;5067741;28;20067;-53
2022/03/03 09:42:19;;;;;;;4.03;3.08;;;;;;;;;;5053034;28;20052;-54
2022/03/03 09:44:44;;;;;;;5.75;3.83;;;;;;;;;;5051235;28;20366;-55
2022/03/03 09:47:11;;;;;;;3.35;3.10;;;;;;;;;;5052288;28;20025;-55
2022/03/03 09:49:37;;;;;;;3.65;3.17;;;;;;;;;;5051554;28;20033;-55
2022/03/03 09:52:10;;;;;;;4.78;4.28;;;;;;;;;;5051600;28;20079;-55
2022/03/03 09:54:35;;;;;;;5.00;3.67;;;;;;;;;;5034375;28;20509;-55
2022/03/03 09:57:00;;;;;;;5.22;4.72;;;;;;;;;;5039395;28;20127;-54
2022/03/03 09:59:25;;;;;;;7.97;6.20;;;;;;;;;;5055099;28;20094;-56
2022/03/03 10:02:00;;;;;;;4.28;3.30;;;;;;;;;;5058227;28;20029;-54
2022/03/03 10:04:25;;;;;;;5.30;4.20;;;;;;;;;;5050379;28;20048;-55
2022/03/03 10:06:51;;;;;;;3.83;2.88;;;;;;;;;;5043306;28;20029;-56
2022/03/03 10:09:17;;;;;;;5.85;4.05;;;;;;;;;;5038447;28;20029;-52
2022/03/03 10:11:48;;;;;;;3.72;3.00;;;;;;;;;;5046365;28;20104;-54
2022/03/03 10:14:13;;;;;;;3.40;3.03;;;;;;;;;;5057043;28;20545;-54
2022/03/03 10:16:46;;;;;;;4.75;3.58;;;;;;;;;;5050808;28;20100;-56
2022/03/03 10:19:11;;;;;;;3.45;3.08;;;;;;;;;;5050049;28;20035;-54
2022/03/03 10:21:38;;;;;;;4.15;3.75;;;;;;;;;;5051702;28;20021;-55
2022/03/03 10:24:17;;;;;;;4.05;3.53;;;;;;;;;;5037056;28;20393;-56
2022/03/03 10:26:44;;;;;;;4.30;3.13;;;;;;;;;;5032932;28;20006;-56
2022/03/03 10:29:20;;;;;;;4.25;3.70;;;;;;;;;;5056323;28;20024;-57
2022/03/03 10:31:46;;;;;;;4.57;4.07;;;;;;;;;;5052018;28;20013;-56
2022/03/03 10:34:15;;;;;;;3.67;3.22;;;;;;;;;;5050359;28;20025;-56
2022/03/03 10:36:40;;;;;;;3.53;3.22;;;;;;;;;;5037711;28;20032;-57
2022/03/03 10:39:06;;;;;;;4.72;2.60;;;;;;;;;;5061162;28;20033;-56
2022/03/03 10:41:42;;;;;;;3.50;2.83;;;;;;;;;;5049401;28;20054;-56
2022/03/03 10:44:09;;;;;;;4.40;3.20;;;;;;;;;;5054187;28;20024;-57
2022/03/03 10:46:35;;;;;;;3.08;2.50;;;;;;;;;;5069957;28;20422;-58
2022/03/03 10:49:15;;;;;;;4.45;3.95;;;;;;;;;;5068748;28;20029;-56
2022/03/03 10:51:40;;;;;;;2.92;2.30;;;;;;;;;;5032788;28;20106;-56
2022/03/03 10:54:08;;;;;;;3.65;2.03;;;;;;;;;;5039238;28;20090;-57
2022/03/03 10:56:41;;;;;;;3.80;2.20;;;;;;;;;;5037042;28;20039;-56
2022/03/03 10:59:07;;;;;;;2.63;2.42;;;;;;;;;;5051569;28;20477;-55
2022/03/03 11:01:33;;;;;;;3.10;2.30;;;;;;;;;;5064273;28;20039;-56
2022/03/03 11:04:00;;;;;;;2.85;2.42;;;;;;;;;;5038370;28;20132;-56
2022/03/03 11:06:28;;;;;;;2.55;2.15;;;;;;;;;;5061718;28;20302;-58
2022/03/03 11:08:54;;;;;;;4.25;2.80;;;;;;;;;;5049606;28;20017;-58
2022/03/03 11:11:20;;;;;;;2.60;1.27;;;;;;;;;;5046458;28;20037;-57
2022/03/03 11:13:47;;;;;;;2.13;1.52;;;;;;;;;;5054089;28;20049;-57
2022/03/03 11:16:13;;;;;;;2.03;1.23;;;;;;;;;;5062595;28;20008;-55
2022/03/03 11:18:38;;;;;;;2.00;0.73;;;;;;;;;;5067140;28;20025;-57
2022/03/03 11:21:03;;;;;;;1.75;0.63;;;;;;;;;;5056659;28;20457;-57
2022/03/03 11:23:39;;;;;;;0.93;0.70;;;;;;;;;;5058598;28;20028;-57
2022/03/03 11:26:04;;;;;;;1.10;0.70;;;;;;;;;;5047766;28;20512;-56
2022/03/03 11:28:36;;;;;;;1.10;0.85;;;;;;;;;;5050062;28;20022;-57
2022/03/03 11:31:26;;;;;;;0.85;0.50;;;;;;;;;;5066860;28;20025;-57
2022/03/03 11:34:12;;;;;;;0.52;0.43;;;;;;;;;;5047824;28;20051;-57
2022/03/03 11:36:44;;;;;;;0.75;0.50;;;;;;;;;;5067094;28;20029;-57
2022/03/03 11:39:10;;;;;;;0.60;0.40;;;;;;;;;;5056734;28;20028;-57
2022/03/03 11:41:49;;;;;;;1.00;0.63;;;;;;;;;;5056165;28;20868;-57
2022/03/03 11:44:14;;;;;;;0.82;0.60;;;;;;;;;;5054965;28;20032;-57
2022/03/03 11:46:43;;;;;;;0.60;0.60;;;;;;;;;;5057987;28;20032;-55
2022/03/03 11:49:09;;;;;;;1.15;1.05;;;;;;;;;;5074490;28;20021;-56
2022/03/03 11:51:34;;;;;;;1.25;1.15;;;;;;;;;;5075110;28;20036;-57
2022/03/03 11:54:10;;;;;;;1.52;1.13;;;;;;;;;;5054252;28;20466;-56
2022/03/03 11:56:36;;;;;;;1.95;1.17;;;;;;;;;;5053792;28;20476;-55
2022/03/03 11:59:11;;;;;;;1.15;1.05;;;;;;;;;;5044976;28;20033;-57
2022/03/03 12:01:36;;;;;;;;;;;;;;;;;;5043990;28;20013;-57
2022/03/03 12:04:03;;;;;;;2.17;1.83;;;;;;;;;;5073576;28;19926;-58
2022/03/03 12:06:36;;;;;;;2.22;2.00;;;;;;;;;;5052523;28;20115;-58
2022/03/03 12:09:14;;;;;;;2.80;2.60;;;;;;;;;;5053643;28;20031;-56
2022/03/03 12:11:39;;;;;;;3.30;2.63;;;;;;;;;;5041853;28;20029;-55
2022/03/03 12:14:25;;;;;;;1.47;1.37;;;;;;;;;;5052482;28;20075;-58
2022/03/03 12:16:50;;;;;;;2.95;2.63;;;;;;;;;;5044151;28;20272;-57
2022/03/03 12:19:15;;;;;;;3.10;2.10;;;;;;;;;;5063843;28;20044;-56
2022/03/03 12:21:44;;;;;;;1.55;1.13;;;;;;;;;;5054204;28;20174;-55
2022/03/03 12:24:12;;;;;;;3.03;2.65;;;;;;;;;;5039686;28;20033;-57
2022/03/03 12:26:56;;;;;;;1.55;1.45;;;;;;;;;;5044975;28;20424;-55
2022/03/03 12:29:29;;;;;;;1.77;1.52;;;;;;;;;;5051196;28;20029;-57
2022/03/03 12:31:54;;;;;;;1.00;0.95;;;;;;;;;;5063469;28;20060;-55
2022/03/03 12:34:20;;;;;;;2.20;1.47;;;;;;;;;;5045379;28;20063;-56
2022/03/03 12:36:45;;;;;;;3.03;2.40;;;;;;;;;;5053451;28;20260;-56
2022/03/03 12:39:10;;;;;;;1.88;1.63;;;;;;;;;;5057621;28;20361;-55
2022/03/03 12:41:36;;;;;;;1.35;1.05;;;;;;;;;;5044480;28;20394;-56
2022/03/03 12:44:05;;;;;;;1.73;1.30;;;;;;;;;;5054025;28;20082;-57
2022/03/03 12:46:30;;;;;;;1.67;1.27;;;;;;;;;;5053986;28;20075;-57
2022/03/03 12:48:55;;;;;;;1.98;1.60;;;;;;;;;;5054393;28;20025;-54
2022/03/03 12:51:23;;;;;;;2.03;1.40;;;;;;;;;;5071668;28;20035;-58
2022/03/03 12:53:49;;;;;;;1.63;1.50;;;;;;;;;;5049379;28;20453;-56
2022/03/03 12:56:21;;;;;;;2.70;2.50;;;;;;;;;;5034153;28;20017;-57
2022/03/03 12:58:47;;;;;;;1.63;1.45;;;;;;;;;;5048707;28;20033;-57
2022/03/03 13:01:12;;;;;;;1.45;1.35;;;;;;;;;;5071786;28;20029;-57
2022/03/03 13:03:37;;;;;;;2.20;2.00;;;;;;;;;;5052903;28;20494;-55
2022/03/03 13:06:06;;;;;;;1.00;0.83;;;;;;;;;;5055887;28;20447;-56
2022/03/03 13:08:37;;;;;;;2.17;1.95;;;;;;;;;;5052504;28;20325;-57
2022/03/03 13:11:05;;;;;;;1.90;1.77;;;;;;;;;;5052189;28;20024;-55
2022/03/03 13:13:31;;;;;;;1.75;1.65;;;;;;;;;;5051949;28;20025;-57
2022/03/03 13:15:57;;;;;;;3.30;3.00;;;;;;;;;;5035436;28;20056;-56
2022/03/03 13:18:23;;;;;;;3.28;2.97;;;;;;;;;;5058282;28;20021;-57
2022/03/03 13:20:56;;;;;;;3.35;3.13;;;;;;;;;;5053824;28;20029;-57
2022/03/03 13:23:22;;;;;;;4.50;4.03;;;;;;;;;;5051857;28;20087;-57
2022/03/03 13:26:11;;;;;;;3.67;3.38;;;;;;;;;;5032916;28;20025;-58
2022/03/03 13:28:46;;;;;;;3.20;2.97;;;;;;;;;;5045593;28;20017;-58
2022/03/03 13:31:12;;;;;;;3.20;2.70;;;;;;;;;;5049931;28;20036;-57
2022/03/03 13:33:40;;;;;;;3.55;3.25;;;;;;;;;;5064926;28;20036;-57
2022/03/03 13:36:13;;;;;;;4.30;3.67;;;;;;;;;;5035753;28;20035;-57
2022/03/03 13:38:39;;;;;;;4.00;3.70;;;;;;;;;;5065837;28;20027;-57
2022/03/03 13:41:18;;;;;;;3.60;3.13;;;;;;;;;;5064204;28;20021;-57
2022/03/03 13:43:43;;;;;;;3.17;2.88;;;;;;;;;;5069370;28;20020;-55
2022/03/03 13:46:08;;;;;;;3.53;3.17;;;;;;;;;;5070673;28;20028;-58
2022/03/03 13:48:34;;;;;;;4.38;3.63;;;;;;;;;;5053405;28;20125;-57
2022/03/03 13:51:03;;;;;;;3.08;1.98;;;;;;;;;;5070973;28;20166;-57
2022/03/03 13:53:28;;;;;;;2.22;2.03;;;;;;;;;;5057665;28;20328;-57
2022/03/03 13:56:05;;;;;;;1.20;1.10;;;;;;;;;;5022397;28;20249;-58
2022/03/03 13:58:30;;;;;;;3.65;3.13;;;;;;;;;;5032237;28;20171;-56
2022/03/03 14:00:55;;;;;;;3.97;3.53;;;;;;;;;;5036239;28;20024;-56
2022/03/03 14:03:32;;;;;;;3.42;3.13;;;;;;;;;;5059347;28;20325;-57
2022/03/03 14:06:01;;;;;;;3.28;2.97;;;;;;;;;;5067421;28;20019;-57
2022/03/03 14:08:29;;;;;;;1.80;1.40;;;;;;;;;;5061045;28;20477;-57
2022/03/03 14:10:54;;;;;;;1.63;1.52;;;;;;;;;;5052164;28;20013;-58
2022/03/03 14:13:21;;;;;;;1.52;1.42;;;;;;;;;;5052358;28;20032;-57
2022/03/03 14:15:46;;;;;;;1.42;1.33;;;;;;;;;;5052300;28;20023;-57
2022/03/03 14:18:13;;;;;;;1.15;1.05;;;;;;;;;;5066179;28;20036;-57
2022/03/03 14:20:39;;;;;;;0.90;0.70;;;;;;;;;;5060415;28;20477;-55
2022/03/03 14:23:04;;;;;;;1.20;1.10;;;;;;;;;;5050312;28;20063;-57
2022/03/03 14:25:29;;;;;;;1.95;1.65;;;;;;;;;;5039633;28;20025;-56
2022/03/03 14:27:55;;;;;;;1.58;1.33;;;;;;;;;;5067008;28;20022;-56
2022/03/03 14:30:22;;;;;;;0.95;0.82;;;;;;;;;;5037720;28;20035;-56
2022/03/03 14:32:48;;;;;;;1.48;1.35;;;;;;;;;;5067097;28;20052;-57
2022/03/03 14:35:13;;;;;;;2.50;2.30;;;;;;;;;;5033931;28;20025;-54
2022/03/03 14:37:40;;;;;;;3.15;2.13;;;;;;;;;;5051925;28;20029;-57
2022/03/03 14:40:06;;;;;;;1.38;1.27;;;;;;;;;;5043921;28;20019;-56
2022/03/03 14:42:31;;;;;;;2.50;2.05;;;;;;;;;;5049569;28;20017;-56
2022/03/03 14:45:00;;;;;;;1.77;1.67;;;;;;;;;;5051204;28;20071;-56